Time;durP1;ratioP1;P1;durP2;ratioP2;P2;SDS_P1;SDS_P2;PMS_P1;PMS_P2;Temp;Humidity;BMP_temperature;BMP_pressure;BME280_temperature;BME280_humidity;BME280_pressure;Samples;Min_cycle;Max_cycle;Signal;HPM_P1;HPM_P2
2023/05/22 00:00:08;;;;;;;2.47;1.58;;;;;;;;;;5016536;28;20484;-77
2023/05/22 00:02:37;;;;;;;3.55;1.83;;;;;;;;;;5018323;28;20022;-77
2023/05/22 00:05:05;;;;;;;3.67;1.90;;;;;;;;;;5017775;28;20048;-77
2023/05/22 00:07:31;;;;;;;2.33;1.52;;;;;;;;;;5020292;28;20021;-77
2023/05/22 00:09:57;;;;;;;3.67;2.22;;;;;;;;;;5019490;28;20037;-78
2023/05/22 00:12:23;;;;;;;2.33;1.60;;;;;;;;;;5018826;28;20905;-77
2023/05/22 00:14:49;;;;;;;2.20;1.60;;;;;;;;;;5017123;28;20029;-78
2023/05/22 00:17:15;;;;;;;2.22;1.83;;;;;;;;;;5020448;28;20079;-78
2023/05/22 00:19:41;;;;;;;5.60;1.60;;;;;;;;;;5021226;28;20029;-78
2023/05/22 00:22:08;;;;;;;3.22;1.52;;;;;;;;;;5022654;28;20029;-78
2023/05/22 00:24:35;;;;;;;2.95;2.08;;;;;;;;;;5001350;28;20022;-78
2023/05/22 00:27:01;;;;;;;2.20;1.60;;;;;;;;;;5019121;28;20033;-78
2023/05/22 00:29:27;;;;;;;1.77;1.63;;;;;;;;;;5002087;28;20117;-78
2023/05/22 00:31:53;;;;;;;1.77;1.58;;;;;;;;;;5018372;28;20057;-78
2023/05/22 00:34:19;;;;;;;2.67;1.70;;;;;;;;;;5028230;28;20025;-78
2023/05/22 00:36:45;;;;;;;3.30;2.03;;;;;;;;;;5031365;28;20026;-78
2023/05/22 00:39:11;;;;;;;2.22;1.70;;;;;;;;;;5026999;28;20515;-78
2023/05/22 00:41:37;;;;;;;1.55;1.45;;;;;;;;;;5020873;28;20053;-78
2023/05/22 00:44:03;;;;;;;1.80;1.40;;;;;;;;;;5023924;28;20041;-78
2023/05/22 00:46:29;;;;;;;2.47;1.30;;;;;;;;;;5026276;28;20053;-78
2023/05/22 00:48:56;;;;;;;2.78;1.60;;;;;;;;;;5025259;28;20029;-78
2023/05/22 00:51:22;;;;;;;2.15;1.55;;;;;;;;;;5023736;28;20491;-78
2023/05/22 00:53:49;;;;;;;2.78;1.60;;;;;;;;;;5017861;28;20026;-78
2023/05/22 00:56:15;;;;;;;1.63;1.50;;;;;;;;;;5021705;28;20025;-78
2023/05/22 00:58:41;;;;;;;2.17;1.50;;;;;;;;;;5023299;28;20040;-78
2023/05/22 01:01:08;;;;;;;2.75;1.80;;;;;;;;;;5023594;28;20040;-78
2023/05/22 01:03:36;;;;;;;2.33;1.40;;;;;;;;;;5019350;28;20021;-77
2023/05/22 01:06:02;;;;;;;1.92;1.35;;;;;;;;;;5025718;28;20427;-77
2023/05/22 01:08:28;;;;;;;1.80;1.50;;;;;;;;;;5024410;28;20036;-77
2023/05/22 01:11:01;;;;;;;4.88;1.63;;;;;;;;;;5025962;28;20515;-77
2023/05/22 01:13:45;;;;;;;2.67;1.45;;;;;;;;;;5021576;28;20029;-77
2023/05/22 01:16:24;;;;;;;1.67;1.10;;;;;;;;;;5027958;28;20542;-78
2023/05/22 01:18:56;;;;;;;1.95;1.40;;;;;;;;;;5020997;28;20476;-78
2023/05/22 01:21:29;;;;;;;2.78;1.58;;;;;;;;;;5026390;28;20116;-78
2023/05/22 01:24:14;;;;;;;3.13;1.42;;;;;;;;;;5023512;28;20034;-78
2023/05/22 01:26:46;;;;;;;2.25;1.48;;;;;;;;;;5021633;28;20029;-78
2023/05/22 01:29:28;;;;;;;1.70;1.25;;;;;;;;;;5023698;28;20095;-78
2023/05/22 01:31:55;;;;;;;3.08;1.75;;;;;;;;;;5020196;28;20053;-77
2023/05/22 01:34:21;;;;;;;1.17;1.02;;;;;;;;;;5020407;28;20524;-78
2023/05/22 01:36:48;;;;;;;3.35;1.92;;;;;;;;;;5022994;28;20588;-78
2023/05/22 01:39:21;;;;;;;2.00;1.42;;;;;;;;;;5027728;28;20017;-78
2023/05/22 01:41:47;;;;;;;2.67;1.70;;;;;;;;;;5028050;28;20269;-79
2023/05/22 01:44:13;;;;;;;1.55;1.30;;;;;;;;;;5032880;28;20043;-78
2023/05/22 01:46:39;;;;;;;2.58;1.80;;;;;;;;;;5023617;28;20025;-78
2023/05/22 01:49:07;;;;;;;3.88;1.48;;;;;;;;;;5024081;28;20128;-78
2023/05/22 01:51:52;;;;;;;1.63;1.23;;;;;;;;;;5022549;28;20036;-78
2023/05/22 01:54:22;;;;;;;1.75;1.40;;;;;;;;;;5023387;28;20030;-78
2023/05/22 01:56:55;;;;;;;2.55;1.50;;;;;;;;;;5020364;28;20025;-78
2023/05/22 01:59:47;;;;;;;1.35;1.25;;;;;;;;;;5023027;28;20026;-78
2023/05/22 02:02:13;;;;;;;;;;;;;;;;;;5025199;28;20033;-78
2023/05/22 02:04:42;;;;;;;3.15;1.17;;;;;;;;;;5022151;28;19909;-78
2023/05/22 02:07:10;;;;;;;1.52;1.38;;;;;;;;;;5019605;28;20045;-78
2023/05/22 02:09:36;;;;;;;1.67;1.35;;;;;;;;;;5019109;28;20056;-78
2023/05/22 02:12:03;;;;;;;1.40;1.17;;;;;;;;;;5024793;28;20112;-76
2023/05/22 02:14:29;;;;;;;1.27;1.17;;;;;;;;;;5023835;28;20052;-74
2023/05/22 02:16:55;;;;;;;2.92;1.40;;;;;;;;;;5025533;28;20112;-75
2023/05/22 02:19:21;;;;;;;3.92;1.65;;;;;;;;;;5016651;28;20083;-75
2023/05/22 02:21:47;;;;;;;1.27;1.02;;;;;;;;;;5020383;28;20021;-75
2023/05/22 02:24:13;;;;;;;5.07;1.48;;;;;;;;;;5025365;28;20052;-75
2023/05/22 02:26:39;;;;;;;3.30;1.70;;;;;;;;;;5021003;28;20049;-75
2023/05/22 02:29:05;;;;;;;3.92;1.60;;;;;;;;;;5018673;28;20095;-74
2023/05/22 02:31:31;;;;;;;1.88;1.33;;;;;;;;;;5014640;28;20045;-74
2023/05/22 02:33:57;;;;;;;2.03;1.50;;;;;;;;;;5025655;28;20025;-74
2023/05/22 02:36:25;;;;;;;2.17;1.60;;;;;;;;;;5024989;28;20223;-74
2023/05/22 02:38:51;;;;;;;1.45;1.20;;;;;;;;;;5022673;28;20100;-74
2023/05/22 02:41:17;;;;;;;2.78;1.80;;;;;;;;;;5023810;28;20026;-74
2023/05/22 02:43:43;;;;;;;2.25;1.27;;;;;;;;;;5026855;28;20035;-73
2023/05/22 02:46:09;;;;;;;3.15;1.10;;;;;;;;;;5025933;28;20108;-73
2023/05/22 02:48:35;;;;;;;1.73;1.50;;;;;;;;;;5026744;28;20017;-74
2023/05/22 02:51:01;;;;;;;2.30;1.38;;;;;;;;;;5021558;28;20467;-74
2023/05/22 02:53:27;;;;;;;2.17;1.45;;;;;;;;;;5026209;28;20040;-74
2023/05/22 02:55:57;;;;;;;1.75;1.42;;;;;;;;;;5025746;28;20112;-74
2023/05/22 02:58:24;;;;;;;1.85;1.40;;;;;;;;;;5026170;28;20021;-73
2023/05/22 03:00:51;;;;;;;1.88;1.38;;;;;;;;;;5024639;28;20041;-73
2023/05/22 03:03:17;;;;;;;2.55;1.55;;;;;;;;;;5025170;28;20030;-74
2023/05/22 03:05:44;;;;;;;2.22;1.38;;;;;;;;;;5024860;28;20543;-73
2023/05/22 03:08:10;;;;;;;1.63;1.30;;;;;;;;;;5024388;28;20053;-74
2023/05/22 03:10:36;;;;;;;1.90;1.40;;;;;;;;;;5023862;28;20040;-73
2023/05/22 03:13:02;;;;;;;3.75;1.52;;;;;;;;;;5026296;28;20018;-74
2023/05/22 03:15:28;;;;;;;2.58;1.38;;;;;;;;;;5025081;28;20171;-73
2023/05/22 03:17:55;;;;;;;5.65;1.77;;;;;;;;;;5025705;28;20013;-74
2023/05/22 03:20:21;;;;;;;2.00;1.30;;;;;;;;;;5023112;28;20061;-73
2023/05/22 03:22:47;;;;;;;1.35;1.00;;;;;;;;;;5023117;28;20043;-73
2023/05/22 03:25:13;;;;;;;2.15;1.38;;;;;;;;;;5024395;28;20026;-73
2023/05/22 03:27:42;;;;;;;2.08;1.27;;;;;;;;;;5023987;28;20033;-74
2023/05/22 03:30:08;;;;;;;1.80;1.30;;;;;;;;;;5025575;28;20112;-74
2023/05/22 03:32:36;;;;;;;1.40;1.30;;;;;;;;;;5023297;28;20033;-74
2023/05/22 03:35:02;;;;;;;1.92;0.98;;;;;;;;;;5023346;28;20083;-73
2023/05/22 03:37:28;;;;;;;1.75;1.20;;;;;;;;;;5023114;28;20043;-74
2023/05/22 03:39:54;;;;;;;2.75;1.20;;;;;;;;;;5026278;28;20014;-73
2023/05/22 03:42:20;;;;;;;1.60;1.20;;;;;;;;;;5023642;28;20048;-74
2023/05/22 03:44:48;;;;;;;4.65;1.60;;;;;;;;;;5022859;28;20029;-73
2023/05/22 03:47:14;;;;;;;4.38;1.30;;;;;;;;;;5021709;28;20052;-77
2023/05/22 03:49:40;;;;;;;2.97;1.63;;;;;;;;;;5024707;28;21183;-75
2023/05/22 03:52:06;;;;;;;2.75;1.48;;;;;;;;;;5002288;28;20159;-75
2023/05/22 03:54:32;;;;;;;5.47;1.88;;;;;;;;;;5023494;28;20146;-76
2023/05/22 03:56:57;;;;;;;1.38;1.27;;;;;;;;;;5025636;28;20060;-76
2023/05/22 03:59:24;;;;;;;3.95;1.27;;;;;;;;;;5025187;28;20029;-75
2023/05/22 04:01:50;;;;;;;1.20;1.10;;;;;;;;;;5024865;28;20029;-76
2023/05/22 04:04:16;;;;;;;1.25;1.08;;;;;;;;;;5022081;28;20416;-76
2023/05/22 04:06:42;;;;;;;1.75;1.20;;;;;;;;;;5020940;28;20037;-75
2023/05/22 04:09:11;;;;;;;2.05;1.40;;;;;;;;;;5023474;28;20026;-75
2023/05/22 04:11:41;;;;;;;2.83;1.30;;;;;;;;;;5023011;28;20527;-75
2023/05/22 04:14:07;;;;;;;1.88;1.08;;;;;;;;;;5023935;28;20476;-74
2023/05/22 04:16:33;;;;;;;1.90;1.35;;;;;;;;;;5023295;28;20108;-75
2023/05/22 04:19:02;;;;;;;3.03;1.45;;;;;;;;;;5025382;28;20104;-75
2023/05/22 04:21:34;;;;;;;1.35;1.00;;;;;;;;;;5024548;28;20388;-76
2023/05/22 04:24:01;;;;;;;1.58;1.40;;;;;;;;;;5023446;28;20409;-76
2023/05/22 04:26:30;;;;;;;1.52;1.17;;;;;;;;;;5023719;28;20025;-75
2023/05/22 04:28:56;;;;;;;1.58;1.33;;;;;;;;;;5025599;28;20055;-76
2023/05/22 04:31:22;;;;;;;2.47;1.50;;;;;;;;;;5024330;28;20113;-76
2023/05/22 04:33:49;;;;;;;2.63;1.27;;;;;;;;;;5028525;28;20502;-74
2023/05/22 04:36:16;;;;;;;2.53;1.23;;;;;;;;;;5028265;28;20112;-79
2023/05/22 04:38:49;;;;;;;1.80;1.17;;;;;;;;;;5028967;28;20030;-78
2023/05/22 04:41:16;;;;;;;1.30;1.20;;;;;;;;;;5030082;28;20152;-77
2023/05/22 04:43:42;;;;;;;1.92;1.00;;;;;;;;;;5030734;28;20022;-78
2023/05/22 04:46:08;;;;;;;1.80;1.42;;;;;;;;;;5030676;28;20396;-77
2023/05/22 04:48:35;;;;;;;1.92;1.40;;;;;;;;;;5030125;28;20055;-77
2023/05/22 04:51:01;;;;;;;2.10;1.50;;;;;;;;;;5031228;28;20021;-77
2023/05/22 04:53:29;;;;;;;1.85;1.30;;;;;;;;;;5031277;28;20029;-78
2023/05/22 04:55:55;;;;;;;1.45;1.15;;;;;;;;;;5030663;28;20108;-78
2023/05/22 04:58:22;;;;;;;4.97;1.50;;;;;;;;;;5031478;28;20083;-78
2023/05/22 05:00:48;;;;;;;1.83;1.45;;;;;;;;;;5029567;28;20120;-78
2023/05/22 05:03:14;;;;;;;1.25;1.15;;;;;;;;;;5030008;28;20037;-77
2023/05/22 05:05:40;;;;;;;2.38;1.20;;;;;;;;;;5029405;28;20049;-78
2023/05/22 05:08:06;;;;;;;2.35;1.40;;;;;;;;;;5029043;28;20154;-78
2023/05/22 05:10:35;;;;;;;2.05;1.27;;;;;;;;;;5012431;28;20061;-78
2023/05/22 05:13:01;;;;;;;1.95;1.27;;;;;;;;;;5012488;28;20124;-78
2023/05/22 05:15:28;;;;;;;7.32;1.50;;;;;;;;;;5031092;28;20029;-79
2023/05/22 05:17:54;;;;;;;1.98;1.50;;;;;;;;;;5030933;28;20033;-78
2023/05/22 05:20:20;;;;;;;3.70;1.40;;;;;;;;;;5029243;28;20029;-78
2023/05/22 05:22:46;;;;;;;2.47;1.60;;;;;;;;;;5031760;28;20086;-79
2023/05/22 05:25:12;;;;;;;1.45;1.00;;;;;;;;;;5031248;28;21451;-78
2023/05/22 05:27:38;;;;;;;1.58;1.27;;;;;;;;;;5032083;28;20464;-79
2023/05/22 05:30:05;;;;;;;2.20;1.15;;;;;;;;;;5029587;28;20018;-77
2023/05/22 05:32:31;;;;;;;1.63;1.33;;;;;;;;;;5028749;28;20453;-78
2023/05/22 05:34:57;;;;;;;1.88;1.48;;;;;;;;;;5031566;28;21979;-78
2023/05/22 05:37:23;;;;;;;3.22;1.77;;;;;;;;;;5031423;28;20010;-77
2023/05/22 05:39:49;;;;;;;1.35;1.23;;;;;;;;;;5026543;28;20025;-79
2023/05/22 05:42:16;;;;;;;2.45;1.33;;;;;;;;;;5027871;28;20108;-78
2023/05/22 05:44:42;;;;;;;1.90;1.42;;;;;;;;;;5021453;28;20029;-79
2023/05/22 05:47:08;;;;;;;1.20;0.95;;;;;;;;;;5006558;28;20099;-77
2023/05/22 05:49:34;;;;;;;1.65;1.30;;;;;;;;;;5027148;28;20025;-78
2023/05/22 05:52:00;;;;;;;2.35;1.50;;;;;;;;;;5026412;28;20048;-78
2023/05/22 05:54:26;;;;;;;1.73;1.30;;;;;;;;;;5028355;28;20030;-78
2023/05/22 05:56:52;;;;;;;3.33;1.48;;;;;;;;;;5025552;28;20014;-78
2023/05/22 05:59:18;;;;;;;2.10;1.52;;;;;;;;;;5027024;28;20079;-78
2023/05/22 06:01:46;;;;;;;1.05;0.95;;;;;;;;;;5025205;28;20037;-76
2023/05/22 06:04:12;;;;;;;2.28;1.58;;;;;;;;;;5025342;28;20034;-75
2023/05/22 06:06:38;;;;;;;1.83;1.13;;;;;;;;;;5023855;28;20060;-77
2023/05/22 06:09:05;;;;;;;1.42;1.13;;;;;;;;;;5025759;28;20028;-77
2023/05/22 06:11:31;;;;;;;1.23;1.02;;;;;;;;;;5023577;28;20029;-77
2023/05/22 06:13:58;;;;;;;1.95;1.17;;;;;;;;;;5020569;28;20112;-76
2023/05/22 06:16:24;;;;;;;1.92;1.20;;;;;;;;;;5021018;28;20751;-76
2023/05/22 06:18:51;;;;;;;4.43;1.42;;;;;;;;;;5022487;28;22531;-77
2023/05/22 06:21:19;;;;;;;1.92;1.20;;;;;;;;;;5021627;28;20029;-74
2023/05/22 06:23:51;;;;;;;1.58;1.17;;;;;;;;;;5017847;28;20029;-75
2023/05/22 06:26:17;;;;;;;1.63;1.20;;;;;;;;;;5019055;28;20078;-76
2023/05/22 06:28:44;;;;;;;1.60;1.20;;;;;;;;;;5019199;28;20033;-75
2023/05/22 06:31:10;;;;;;;2.67;1.10;;;;;;;;;;5019065;28;20038;-74
2023/05/22 06:33:36;;;;;;;1.42;1.23;;;;;;;;;;5013941;28;20388;-74
2023/05/22 06:36:03;;;;;;;2.10;1.20;;;;;;;;;;5017309;28;20030;-75
2023/05/22 06:38:30;;;;;;;2.55;1.45;;;;;;;;;;5017425;28;21230;-76
2023/05/22 06:40:56;;;;;;;1.92;1.23;;;;;;;;;;5019708;28;20087;-76
2023/05/22 06:43:22;;;;;;;1.42;1.10;;;;;;;;;;5026372;28;20037;-74
2023/05/22 06:45:48;;;;;;;1.40;1.10;;;;;;;;;;5015154;28;20164;-74
2023/05/22 06:48:14;;;;;;;3.67;1.65;;;;;;;;;;5015110;28;20034;-74
2023/05/22 06:50:40;;;;;;;2.85;1.73;;;;;;;;;;5017323;28;20054;-78
2023/05/22 06:53:06;;;;;;;2.15;1.48;;;;;;;;;;5020184;28;20030;-79
2023/05/22 06:55:32;;;;;;;2.55;1.45;;;;;;;;;;5018705;28;20036;-82
2023/05/22 06:57:58;;;;;;;2.20;1.10;;;;;;;;;;5015416;28;20025;-81
2023/05/22 07:00:24;;;;;;;1.40;1.30;;;;;;;;;;5018702;28;20027;-77
2023/05/22 07:02:50;;;;;;;3.45;1.85;;;;;;;;;;5021999;28;20021;-77
2023/05/22 07:05:16;;;;;;;2.45;1.02;;;;;;;;;;5020055;28;20638;-78
2023/05/22 07:07:43;;;;;;;2.38;1.45;;;;;;;;;;5018236;28;20025;-77
2023/05/22 07:10:09;;;;;;;3.70;1.65;;;;;;;;;;5017891;28;20029;-77
2023/05/22 07:12:35;;;;;;;2.03;1.48;;;;;;;;;;5015651;28;20075;-76
2023/05/22 07:15:01;;;;;;;2.95;1.92;;;;;;;;;;5016786;28;20025;-75
2023/05/22 07:17:27;;;;;;;2.40;1.50;;;;;;;;;;5025493;28;20029;-76
2023/05/22 07:19:53;;;;;;;2.72;1.60;;;;;;;;;;5024761;28;20185;-76
2023/05/22 07:22:19;;;;;;;1.65;1.13;;;;;;;;;;5018868;28;20037;-77
2023/05/22 07:24:46;;;;;;;1.42;1.17;;;;;;;;;;5023411;28;20026;-76
2023/05/22 07:27:12;;;;;;;1.30;1.20;;;;;;;;;;5024035;28;20018;-76
2023/05/22 07:29:38;;;;;;;1.67;1.40;;;;;;;;;;5021531;28;20045;-76
2023/05/22 07:32:04;;;;;;;1.98;1.20;;;;;;;;;;5017667;28;21199;-76
2023/05/22 07:34:33;;;;;;;1.48;1.30;;;;;;;;;;5018331;28;20125;-77
2023/05/22 07:37:00;;;;;;;2.28;1.40;;;;;;;;;;5019119;28;20048;-77
2023/05/22 07:39:26;;;;;;;4.38;2.38;;;;;;;;;;5030736;28;20049;-76
2023/05/22 07:41:53;;;;;;;1.90;1.30;;;;;;;;;;5027716;28;20435;-76
2023/05/22 07:44:19;;;;;;;2.53;1.40;;;;;;;;;;5033292;28;20121;-76
2023/05/22 07:46:45;;;;;;;1.90;1.38;;;;;;;;;;5028602;28;20087;-77
2023/05/22 07:49:11;;;;;;;2.80;1.52;;;;;;;;;;5024452;28;20041;-76
2023/05/22 07:51:37;;;;;;;2.25;1.08;;;;;;;;;;5023759;28;20061;-77
2023/05/22 07:54:03;;;;;;;2.97;1.48;;;;;;;;;;5020381;28;20447;-76
2023/05/22 07:56:31;;;;;;;1.65;1.35;;;;;;;;;;5021316;28;20048;-77
2023/05/22 07:58:57;;;;;;;3.30;1.70;;;;;;;;;;5023919;28;20065;-76
2023/05/22 08:01:26;;;;;;;1.55;1.33;;;;;;;;;;5019402;28;20029;-77
2023/05/22 08:03:52;;;;;;;2.05;1.35;;;;;;;;;;5025629;28;20106;-78
2023/05/22 08:06:18;;;;;;;3.72;1.45;;;;;;;;;;5024153;28;20470;-77
2023/05/22 08:08:44;;;;;;;2.22;1.33;;;;;;;;;;5025390;28;20029;-76
2023/05/22 08:11:10;;;;;;;1.55;1.30;;;;;;;;;;5024206;28;20066;-76
2023/05/22 08:13:37;;;;;;;1.80;1.65;;;;;;;;;;5026289;28;20021;-77
2023/05/22 08:16:03;;;;;;;2.88;1.48;;;;;;;;;;5019896;28;20029;-76
2023/05/22 08:18:29;;;;;;;2.72;1.27;;;;;;;;;;5024603;28;20025;-76
2023/05/22 08:20:55;;;;;;;3.05;1.60;;;;;;;;;;5023633;28;20026;-75
2023/05/22 08:23:21;;;;;;;1.35;1.25;;;;;;;;;;5021239;28;20040;-76
2023/05/22 08:25:48;;;;;;;2.35;1.65;;;;;;;;;;5023788;28;20380;-76
2023/05/22 08:28:14;;;;;;;1.95;1.58;;;;;;;;;;5026893;28;20079;-75
2023/05/22 08:30:40;;;;;;;3.13;1.50;;;;;;;;;;5021831;28;20026;-78
2023/05/22 08:33:06;;;;;;;3.88;2.28;;;;;;;;;;5023741;28;20033;-76
2023/05/22 08:35:33;;;;;;;1.73;1.27;;;;;;;;;;5019878;28;20391;-76
2023/05/22 08:37:59;;;;;;;3.30;1.90;;;;;;;;;;5018947;28;20039;-75
2023/05/22 08:40:31;;;;;;;2.05;1.58;;;;;;;;;;5023067;28;20021;-75
2023/05/22 08:42:57;;;;;;;2.55;1.88;;;;;;;;;;5021059;28;20036;-75
2023/05/22 08:45:25;;;;;;;1.88;1.52;;;;;;;;;;5023226;28;20017;-75
2023/05/22 08:47:52;;;;;;;2.83;1.58;;;;;;;;;;5018069;28;20026;-75
2023/05/22 08:50:18;;;;;;;2.47;1.67;;;;;;;;;;5018541;28;20030;-75
2023/05/22 08:52:50;;;;;;;3.95;1.80;;;;;;;;;;5021780;28;20388;-78
2023/05/22 08:55:18;;;;;;;1.73;1.40;;;;;;;;;;5022065;28;20418;-75
2023/05/22 08:57:44;;;;;;;2.05;1.30;;;;;;;;;;5018270;28;20022;-75
2023/05/22 09:00:10;;;;;;;1.38;1.20;;;;;;;;;;5021634;28;20827;-75
2023/05/22 09:02:37;;;;;;;5.30;1.50;;;;;;;;;;5018677;28;20692;-75
2023/05/22 09:05:06;;;;;;;2.47;1.52;;;;;;;;;;5023142;28;20050;-75
2023/05/22 09:07:33;;;;;;;1.67;1.55;;;;;;;;;;5020146;28;20022;-78
2023/05/22 09:10:00;;;;;;;1.90;1.50;;;;;;;;;;5020880;28;20028;-84
2023/05/22 09:12:29;;;;;;;2.25;1.48;;;;;;;;;;5024888;28;20030;-93
2023/05/22 09:14:57;;;;;;;2.35;1.40;;;;;;;;;;5016180;28;20018;-90
2023/05/22 09:17:23;;;;;;;3.05;1.40;;;;;;;;;;5017190;28;20526;-89
2023/05/22 09:19:59;;;;;;;3.22;1.70;;;;;;;;;;5029767;28;20021;-94
2023/05/22 09:22:34;;;;;;;2.10;1.50;;;;;;;;;;5026751;28;20021;-89
2023/05/22 09:25:00;;;;;;;4.88;2.00;;;;;;;;;;5023829;28;20095;-91
2023/05/22 09:27:26;;;;;;;2.67;2.05;;;;;;;;;;5021151;28;20033;-91
2023/05/22 09:29:55;;;;;;;2.88;1.83;;;;;;;;;;5029366;28;20030;-89
2023/05/22 09:32:21;;;;;;;1.92;1.40;;;;;;;;;;5023153;28;20056;-84
2023/05/22 09:34:47;;;;;;;2.60;1.85;;;;;;;;;;5027192;28;20049;-80
2023/05/22 09:37:19;;;;;;;2.00;1.55;;;;;;;;;;5025661;28;20160;-91
2023/05/22 09:39:53;;;;;;;2.33;1.60;;;;;;;;;;5030944;28;20021;-93
2023/05/22 09:42:19;;;;;;;2.80;1.40;;;;;;;;;;5031783;28;20026;-90
2023/05/22 09:44:48;;;;;;;1.83;1.55;;;;;;;;;;5031486;28;20028;-92
2023/05/22 09:47:22;;;;;;;2.58;1.58;;;;;;;;;;5031914;28;20033;-92
2023/05/22 09:50:03;;;;;;;1.83;1.52;;;;;;;;;;5030767;28;20042;-92
2023/05/22 09:52:32;;;;;;;2.72;2.00;;;;;;;;;;5023856;28;20040;-87
2023/05/22 09:55:00;;;;;;;2.08;1.52;;;;;;;;;;5028557;28;20056;-93
2023/05/22 09:57:27;;;;;;;1.88;1.40;;;;;;;;;;5029847;28;20034;-90
2023/05/22 09:59:57;;;;;;;2.45;1.50;;;;;;;;;;5028287;28;20021;-90
2023/05/22 10:02:24;;;;;;;3.60;1.97;;;;;;;;;;5029649;28;20071;-91
2023/05/22 10:04:50;;;;;;;2.55;1.90;;;;;;;;;;5031051;28;20795;-91
2023/05/22 10:07:24;;;;;;;2.75;2.20;;;;;;;;;;5029079;28;20514;-91
2023/05/22 10:09:52;;;;;;;3.70;2.15;;;;;;;;;;5028479;28;20025;-86
2023/05/22 10:12:20;;;;;;;1.80;1.63;;;;;;;;;;5030016;28;20116;-89
2023/05/22 10:14:47;;;;;;;2.42;1.65;;;;;;;;;;5028129;28;20021;-89
2023/05/22 10:17:16;;;;;;;3.60;1.80;;;;;;;;;;5028242;28;20025;-89
2023/05/22 10:19:42;;;;;;;3.90;1.75;;;;;;;;;;5026926;28;20028;-90
2023/05/22 10:22:19;;;;;;;3.42;2.00;;;;;;;;;;5030080;28;20018;-89
2023/05/22 10:24:48;;;;;;;3.97;2.17;;;;;;;;;;5028433;28;20021;-88
2023/05/22 10:27:16;;;;;;;2.28;1.88;;;;;;;;;;5029484;28;20029;-89
2023/05/22 10:29:47;;;;;;;1.70;1.60;;;;;;;;;;5026236;28;20049;-88
2023/05/22 10:32:20;;;;;;;2.13;1.77;;;;;;;;;;5029567;28;20384;-88
2023/05/22 10:34:51;;;;;;;3.95;1.92;;;;;;;;;;5028522;28;20115;-89
2023/05/22 10:37:33;;;;;;;2.28;1.80;;;;;;;;;;5030040;28;20396;-89
2023/05/22 10:40:01;;;;;;;2.58;1.80;;;;;;;;;;5029381;28;20108;-88
2023/05/22 10:42:33;;;;;;;13.90;2.42;;;;;;;;;;5029272;28;20025;-88
2023/05/22 10:45:00;;;;;;;2.22;1.67;;;;;;;;;;5029691;28;20060;-89
2023/05/22 10:47:32;;;;;;;1.50;1.38;;;;;;;;;;5030314;28;20030;-90
2023/05/22 10:50:06;;;;;;;2.25;1.58;;;;;;;;;;5029889;28;20021;-90
2023/05/22 10:52:33;;;;;;;2.47;1.77;;;;;;;;;;5012928;28;20032;-88
2023/05/22 10:55:00;;;;;;;4.40;1.90;;;;;;;;;;5030961;28;20480;-91
2023/05/22 10:57:27;;;;;;;2.95;1.60;;;;;;;;;;5029153;28;20045;-90
2023/05/22 11:00:07;;;;;;;2.15;1.80;;;;;;;;;;5030587;28;20484;-93
2023/05/22 11:02:56;;;;;;;1.93;1.63;;;;;;;;;;5007945;28;21259;-91
2023/05/22 11:05:24;;;;;;;2.00;1.45;;;;;;;;;;5020211;28;20041;-92
2023/05/22 11:07:50;;;;;;;1.90;1.60;;;;;;;;;;5029163;28;20502;-92
2023/05/22 11:10:35;;;;;;;1.92;1.73;;;;;;;;;;5029486;28;20029;-91
2023/05/22 11:13:15;;;;;;;1.65;1.50;;;;;;;;;;5028761;28;20063;-92
2023/05/22 11:15:47;;;;;;;2.28;1.55;;;;;;;;;;5028381;28;20021;-91
2023/05/22 11:18:14;;;;;;;1.55;1.45;;;;;;;;;;5027691;28;20060;-89
2023/05/22 11:20:42;;;;;;;2.85;2.00;;;;;;;;;;5030111;28;20033;-92
2023/05/22 11:23:13;;;;;;;2.53;1.58;;;;;;;;;;5023782;28;20041;-90
2023/05/22 11:25:40;;;;;;;1.73;1.60;;;;;;;;;;5020556;28;20057;-86
2023/05/22 11:28:25;;;;;;;3.00;1.98;;;;;;;;;;5019567;28;20563;-86
2023/05/22 11:31:05;;;;;;;8.77;1.45;;;;;;;;;;5017483;28;20033;-85
2023/05/22 11:34:03;;;;;;;2.70;1.58;;;;;;;;;;5024030;28;20022;-86
2023/05/22 11:36:49;;;;;;;2.05;1.42;;;;;;;;;;5024059;28;20063;-85
2023/05/22 11:39:18;;;;;;;3.00;1.65;;;;;;;;;;5019589;28;20025;-86
2023/05/22 11:41:51;;;;;;;2.90;1.45;;;;;;;;;;5023752;28;20033;-85
2023/05/22 11:44:26;;;;;;;1.67;1.55;;;;;;;;;;5024584;28;20035;-87
2023/05/22 11:46:54;;;;;;;2.35;1.63;;;;;;;;;;5020384;28;20032;-79
2023/05/22 11:49:22;;;;;;;1.77;1.40;;;;;;;;;;5019894;28;20029;-81
2023/05/22 11:51:49;;;;;;;2.38;2.13;;;;;;;;;;5019463;28;20544;-79
2023/05/22 11:54:18;;;;;;;4.60;1.33;;;;;;;;;;5029446;28;20029;-78
2023/05/22 11:56:45;;;;;;;3.55;2.22;;;;;;;;;;5016401;28;20451;-77
2023/05/22 11:59:11;;;;;;;2.65;2.10;;;;;;;;;;5018348;28;20649;-78
2023/05/22 12:01:37;;;;;;;3.05;2.03;;;;;;;;;;5016613;28;20026;-76
2023/05/22 12:04:04;;;;;;;3.13;1.80;;;;;;;;;;5015573;28;20029;-77
2023/05/22 12:06:32;;;;;;;4.38;2.10;;;;;;;;;;5014335;28;20052;-76
2023/05/22 12:08:58;;;;;;;4.03;1.80;;;;;;;;;;5017778;28;20061;-76
2023/05/22 12:11:26;;;;;;;2.63;1.70;;;;;;;;;;5014209;28;20026;-76
2023/05/22 12:13:59;;;;;;;3.42;1.98;;;;;;;;;;5019633;28;20029;-76
2023/05/22 12:16:25;;;;;;;3.28;1.85;;;;;;;;;;5027641;28;20024;-76
2023/05/22 12:18:52;;;;;;;3.13;1.88;;;;;;;;;;5020268;28;20033;-79
2023/05/22 12:21:19;;;;;;;3.20;1.95;;;;;;;;;;5020697;28;20033;-76
2023/05/22 12:23:49;;;;;;;2.80;1.73;;;;;;;;;;5018736;28;20140;-82
2023/05/22 12:26:15;;;;;;;2.65;1.45;;;;;;;;;;5020358;28;20029;-76
2023/05/22 12:28:41;;;;;;;2.45;2.08;;;;;;;;;;5017377;28;20087;-77
2023/05/22 12:31:07;;;;;;;3.72;1.73;;;;;;;;;;5016404;28;20026;-78
2023/05/22 12:33:33;;;;;;;2.78;1.83;;;;;;;;;;5017399;28;20025;-77
2023/05/22 12:35:59;;;;;;;2.10;1.67;;;;;;;;;;5022044;28;20317;-77
2023/05/22 12:38:26;;;;;;;1.88;1.40;;;;;;;;;;5014341;28;20037;-77
2023/05/22 12:40:52;;;;;;;2.53;1.50;;;;;;;;;;5015481;28;20045;-80
2023/05/22 12:43:18;;;;;;;1.70;1.60;;;;;;;;;;5021136;28;20024;-76
2023/05/22 12:45:44;;;;;;;1.77;1.52;;;;;;;;;;5021143;28;20391;-76
2023/05/22 12:48:11;;;;;;;1.88;1.40;;;;;;;;;;5014671;28;20028;-76
2023/05/22 12:50:37;;;;;;;2.55;1.50;;;;;;;;;;5017881;28;20025;-76
2023/05/22 12:53:04;;;;;;;1.95;1.60;;;;;;;;;;5020874;28;20063;-75
2023/05/22 12:55:30;;;;;;;1.98;1.67;;;;;;;;;;5026048;28;20030;-76
2023/05/22 12:57:59;;;;;;;1.88;1.33;;;;;;;;;;5027142;28;20164;-76
2023/05/22 13:00:25;;;;;;;1.60;1.42;;;;;;;;;;5020195;28;20037;-75
2023/05/22 13:02:51;;;;;;;1.58;1.40;;;;;;;;;;5025652;28;20029;-76
2023/05/22 13:05:17;;;;;;;1.60;1.27;;;;;;;;;;5018293;28;20106;-77
2023/05/22 13:07:43;;;;;;;3.47;1.60;;;;;;;;;;5025090;28;20083;-77
2023/05/22 13:10:09;;;;;;;2.03;1.70;;;;;;;;;;5022108;28;20416;-77
2023/05/22 13:12:35;;;;;;;3.67;1.90;;;;;;;;;;5023440;28;20366;-76
2023/05/22 13:15:01;;;;;;;2.40;1.45;;;;;;;;;;5018268;28;20045;-78
2023/05/22 13:17:27;;;;;;;2.33;1.60;;;;;;;;;;5019318;28;20110;-77
2023/05/22 13:19:54;;;;;;;2.17;1.45;;;;;;;;;;5019911;28;20362;-78
2023/05/22 13:22:20;;;;;;;3.05;1.70;;;;;;;;;;5021551;28;20167;-77
2023/05/22 13:24:47;;;;;;;1.52;1.40;;;;;;;;;;5019716;28;20061;-78
2023/05/22 13:27:15;;;;;;;1.50;1.40;;;;;;;;;;5021300;28;20021;-77
2023/05/22 13:29:41;;;;;;;2.72;1.60;;;;;;;;;;5021367;28;20472;-77
2023/05/22 13:32:07;;;;;;;1.35;1.25;;;;;;;;;;5021323;28;20026;-76
2023/05/22 13:34:33;;;;;;;1.70;1.40;;;;;;;;;;5029801;28;20079;-76
2023/05/22 13:36:59;;;;;;;2.10;1.63;;;;;;;;;;5033558;28;20034;-76
2023/05/22 13:39:25;;;;;;;1.50;1.30;;;;;;;;;;5028057;28;20018;-76
2023/05/22 13:41:52;;;;;;;1.55;1.40;;;;;;;;;;5038285;28;20029;-76
2023/05/22 13:44:19;;;;;;;1.73;1.30;;;;;;;;;;5027266;28;20044;-76
2023/05/22 13:46:45;;;;;;;1.30;1.10;;;;;;;;;;5025213;28;20029;-76
2023/05/22 13:49:33;;;;;;;1.95;1.10;;;;;;;;;;5021674;28;20075;-76
2023/05/22 13:52:02;;;;;;;2.05;1.40;;;;;;;;;;5019518;28;20383;-76
2023/05/22 13:54:28;;;;;;;2.97;1.83;;;;;;;;;;5020108;28;20029;-75
2023/05/22 13:56:56;;;;;;;1.88;1.35;;;;;;;;;;5018364;28;20108;-76
2023/05/22 13:59:22;;;;;;;1.38;1.20;;;;;;;;;;5019409;28;20556;-75
2023/05/22 14:01:48;;;;;;;1.98;1.40;;;;;;;;;;5023086;28;20060;-76
2023/05/22 14:04:14;;;;;;;2.08;1.50;;;;;;;;;;5004145;28;20922;-76
2023/05/22 14:06:40;;;;;;;3.15;1.52;;;;;;;;;;5016150;28;20099;-76
2023/05/22 14:09:08;;;;;;;5.22;1.27;;;;;;;;;;4997161;28;20112;-78
2023/05/22 14:11:34;;;;;;;1.15;1.05;;;;;;;;;;5025660;28;20492;-77
2023/05/22 14:14:00;;;;;;;1.15;1.05;;;;;;;;;;5019894;28;20029;-77
2023/05/22 14:16:35;;;;;;;2.55;1.60;;;;;;;;;;5023023;28;20040;-77
2023/05/22 14:19:01;;;;;;;1.90;1.42;;;;;;;;;;5022818;28;20128;-76
2023/05/22 14:21:27;;;;;;;1.77;1.20;;;;;;;;;;5032335;28;20110;-77
2023/05/22 14:23:53;;;;;;;1.63;1.20;;;;;;;;;;5021097;28;20072;-78
2023/05/22 14:26:20;;;;;;;0.98;0.90;;;;;;;;;;5027563;28;20056;-76
2023/05/22 14:28:46;;;;;;;2.75;1.42;;;;;;;;;;5019224;28;20021;-76
2023/05/22 14:31:12;;;;;;;1.35;1.25;;;;;;;;;;5021208;28;20040;-76
2023/05/22 14:33:38;;;;;;;1.25;1.05;;;;;;;;;;5015596;28;20054;-77
2023/05/22 14:36:04;;;;;;;1.83;1.50;;;;;;;;;;5018799;28;20076;-76
2023/05/22 14:38:32;;;;;;;1.38;1.17;;;;;;;;;;5023241;28;20033;-77
2023/05/22 14:41:02;;;;;;;1.55;1.05;;;;;;;;;;5019726;28;20516;-77
2023/05/22 14:43:28;;;;;;;1.92;1.33;;;;;;;;;;5014802;28;20033;-77
2023/05/22 14:45:55;;;;;;;1.95;1.35;;;;;;;;;;5023880;28;20029;-77